Airfield :
LOGIN :

Register | Disclaimer

   EN    FR    IT 

 










Legend :    VFR   Marginal VFR   IFR   Intensive IFR   Very Intensive IFR
Visi :
Ceiling :
>= 8 km
>= 3000ft
5 to 8 km
1000 to 3000 ft
1500m to 5 km
500 to 1000 ft
800 to 1500m
200 to 500 ft
< 800m
< 200 ft
Symbols :   Thunderstorms  Fog  Heavy snow  Heavy precipitations  Wind > 20 kt
SIGMETs :     Misc.  Thunderstorms  Icing  Turbulence  Mountain Waves  Volcanic Ashes






- Airport Elevation : 423 ft
- IATA code : PIS


LFBI - Poitiers

CURRENT METAR :
  • 122100Z AUTO 31005KT CAVOK 04/03 Q1006 NOSIG

EXPIRED METARs :
  • 122030Z AUTO 31004KT CAVOK 04/03 Q1007 NOSIG
  • 122000Z AUTO VRB03KT CAVOK 04/03 Q1006 NOSIG
  • 121930Z AUTO 25004KT CAVOK 04/03 Q1006 NOSIG
  • 121900Z AUTO 22003KT CAVOK 05/03 Q1006 NOSIG
  • 121830Z AUTO 25004KT CAVOK 06/04 Q1006 NOSIG

TAF TAF LFBI
Valid from the 12 at 18:00 until the 13 at 18:00 UTC


121700Z 1218/1318 24007KT 9999 SCT040
TEMPO 1218/1219 4000 -SHRA BKN030TCU
PROB40 1223/1309 VRB02KT 3000 BR
PROB30 1303/1308 0500 FG VV///
TEMPO 1315/1318 24015G25KT 4000 SHRA SCT014 BKN030TCU



MET'MAP, your aeronautical weather chart ! - Copyright ORBIFLY December 2007 - Disclaimer

ORBIFLY MET'MAP TEAM :

Programming & Development : Alexandra Zaïnal
Concept & Development : Baudouin d'Aumeries
Co-Development & Prog : Marc-Olivier Méhu
Technical & hardware support : Manuel Goepfert

Contact : metmap@orbifly.com




SOURCES & CREDITS :

   NOAA